PWSweather.com
Personal Weather Stations
Station Observations
NOCONAWX
Sherman Street, Nocona, TX 76255

Sherman StreetNocona, TX 76255

Lat: 33.7851771, Lon: -97.7248693

Elevation: 981

Station Type: Davis 6152

http://www.noconaweather.com

Latest ConditionsUpdated 3:30:00 PM CST Friday, Mar 6, 2015
Currently Today's Max Today's Min Today's Average
Temperature 55.0°F12.8°C 55.0°F12.8°C 24.9°F-3.9°C 36.0°F2.2°C
Dew Point 29.2°F-1.6°C 31.2°F-0.4°C 20.5°F-6.4°C 24.2°F-4.3°C
Winds 2.0 mph SW3.2 kmh SW 5.0 mph S8.0 kmh S - 1.8 mph 2.9 kmh
Wind Gusts 6.0 mph9.7 kmh 10.0 mph16.1 kmh - -
Humidity 37% 85% 37% 65%
Pressure 30.46 in1031.5 mb 30.61 in1036.6 mb 30.46 in1031.5 mb -
Hour Temp Dew Point Humidity Winds Wind Gusts Pressure Precip Precip Rate Daily Precip Total
03:30 PM 55.0°F12.8°C 29.2°F-1.6°C 37% 2.0 mph SW3.2 kmh SW 6.0 mph9.7 kmh 30.46 in1031.5 mb 0.00 in0.0 mm 0.00 in/hr0.0 mm/hr 0.00 in0.0 mm
03:15 PM 54.7°F12.6°C 29.6°F-1.3°C 38% 3.0 mph S4.8 kmh S 9.0 mph14.5 kmh 30.47 in1031.8 mb 0.00 in0.0 mm 0.00 in/hr0.0 mm/hr 0.00 in0.0 mm
03:00 PM 54.1°F12.3°C 29.7°F-1.3°C 39% 4.0 mph SSE6.4 kmh SSE 9.0 mph14.5 kmh 30.47 in1031.8 mb 0.00 in0.0 mm 0.00 in/hr0.0 mm/hr 0.00 in0.0 mm
02:45 PM 54.1°F12.3°C 30.3°F-0.9°C 40% 4.0 mph SSE6.4 kmh SSE 8.0 mph12.9 kmh 30.47 in1031.8 mb 0.00 in0.0 mm 0.00 in/hr0.0 mm/hr 0.00 in0.0 mm
02:30 PM 53.5°F11.9°C 29.7°F-1.3°C 40% 3.0 mph SSE4.8 kmh SSE 6.0 mph9.7 kmh 30.48 in1032.2 mb 0.00 in0.0 mm 0.00 in/hr0.0 mm/hr 0.00 in0.0 mm
02:15 PM 52.9°F11.6°C 29.8°F-1.2°C 41% 3.0 mph SSW4.8 kmh SSW 6.0 mph9.7 kmh 30.49 in1032.5 mb 0.00 in0.0 mm 0.00 in/hr0.0 mm/hr 0.00 in0.0 mm
02:00 PM 52.7°F11.5°C 29.0°F-1.7°C 40% 3.0 mph SSW4.8 kmh SSW 7.0 mph11.3 kmh 30.50 in1032.8 mb 0.00 in0.0 mm 0.00 in/hr0.0 mm/hr 0.00 in0.0 mm
01:45 PM 52.6°F11.4°C 29.5°F-1.4°C 41% 3.0 mph S4.8 kmh S 8.0 mph12.9 kmh 30.51 in1033.2 mb 0.00 in0.0 mm 0.00 in/hr0.0 mm/hr 0.00 in0.0 mm
01:30 PM 51.8°F11.0°C 30.0°F-1.1°C 43% 4.0 mph SSW6.4 kmh SSW 7.0 mph11.3 kmh 30.52 in1033.5 mb 0.00 in0.0 mm 0.00 in/hr0.0 mm/hr 0.00 in0.0 mm
01:15 PM 51.6°F10.9°C 30.4°F-0.9°C 44% 3.0 mph SE4.8 kmh SE 5.0 mph8.0 kmh 30.53 in1033.9 mb 0.00 in0.0 mm 0.00 in/hr0.0 mm/hr 0.00 in0.0 mm
01:00 PM 50.7°F10.4°C 31.2°F-0.4°C 47% 4.0 mph SSE6.4 kmh SSE 9.0 mph14.5 kmh 30.54 in1034.2 mb 0.00 in0.0 mm 0.00 in/hr0.0 mm/hr 0.00 in0.0 mm
12:45 PM 50.0°F10.0°C 28.4°F-2.0°C 43% 5.0 mph S8.0 kmh S 10.0 mph16.1 kmh 30.55 in1034.5 mb 0.00 in0.0 mm 0.00 in/hr0.0 mm/hr 0.00 in0.0 mm
12:30 PM 49.9°F9.9°C 29.4°F-1.4°C 45% 4.0 mph S6.4 kmh S 6.0 mph9.7 kmh 30.56 in1034.9 mb 0.00 in0.0 mm 0.00 in/hr0.0 mm/hr 0.00 in0.0 mm
12:15 PM 49.5°F9.7°C 29.0°F-1.7°C 45% 3.0 mph S4.8 kmh S 6.0 mph9.7 kmh 30.57 in1035.2 mb 0.00 in0.0 mm 0.00 in/hr0.0 mm/hr 0.00 in0.0 mm
12:00 PM 49.1°F9.5°C 28.1°F-2.2°C 44% 3.0 mph SSE4.8 kmh SSE 6.0 mph9.7 kmh 30.58 in1035.6 mb 0.00 in0.0 mm 0.00 in/hr0.0 mm/hr 0.00 in0.0 mm
11:45 AM 48.5°F9.2°C 27.6°F-2.4°C 44% 3.0 mph SE4.8 kmh SE 6.0 mph9.7 kmh 30.58 in1035.6 mb 0.00 in0.0 mm 0.00 in/hr0.0 mm/hr 0.00 in0.0 mm
11:30 AM 47.7°F8.7°C 28.4°F-2.0°C 47% 4.0 mph SSW6.4 kmh SSW 6.0 mph9.7 kmh 30.59 in1035.9 mb 0.00 in0.0 mm 0.00 in/hr0.0 mm/hr 0.00 in0.0 mm
11:15 AM 47.0°F8.3°C 28.3°F-2.1°C 48% 3.0 mph S4.8 kmh S 6.0 mph9.7 kmh 30.59 in1035.9 mb 0.00 in0.0 mm 0.00 in/hr0.0 mm/hr 0.00 in0.0 mm
11:00 AM 45.8°F7.7°C 26.7°F-2.9°C 47% 4.0 mph S6.4 kmh S 7.0 mph11.3 kmh 30.60 in1036.2 mb 0.00 in0.0 mm 0.00 in/hr0.0 mm/hr 0.00 in0.0 mm
10:45 AM 45.1°F7.3°C 26.6°F-3.0°C 48% 3.0 mph S4.8 kmh S 6.0 mph9.7 kmh 30.60 in1036.2 mb 0.00 in0.0 mm 0.00 in/hr0.0 mm/hr 0.00 in0.0 mm
10:30 AM 44.1°F6.7°C 26.1°F-3.3°C 49% 4.0 mph SSE6.4 kmh SSE 6.0 mph9.7 kmh 30.60 in1036.2 mb 0.00 in0.0 mm 0.00 in/hr0.0 mm/hr 0.00 in0.0 mm
10:15 AM 43.4°F6.3°C 25.5°F-3.6°C 49% 3.0 mph S4.8 kmh S 6.0 mph9.7 kmh 30.60 in1036.2 mb 0.00 in0.0 mm 0.00 in/hr0.0 mm/hr 0.00 in0.0 mm
10:00 AM 42.2°F5.7°C 25.3°F-3.7°C 51% 3.0 mph SE4.8 kmh SE 5.0 mph8.0 kmh 30.60 in1036.2 mb 0.00 in0.0 mm 0.00 in/hr0.0 mm/hr 0.00 in0.0 mm
09:45 AM 40.8°F4.9°C 25.4°F-3.7°C 54% 4.0 mph SSE6.4 kmh SSE 6.0 mph9.7 kmh 30.61 in1036.6 mb 0.00 in0.0 mm 0.00 in/hr0.0 mm/hr 0.00 in0.0 mm
09:30 AM 39.6°F4.2°C 24.7°F-4.1°C 55% 4.0 mph S6.4 kmh S 9.0 mph14.5 kmh 30.61 in1036.6 mb 0.00 in0.0 mm 0.00 in/hr0.0 mm/hr 0.00 in0.0 mm
09:15 AM 38.3°F3.5°C 24.0°F-4.4°C 56% 4.0 mph S6.4 kmh S 7.0 mph11.3 kmh 30.61 in1036.6 mb 0.00 in0.0 mm 0.00 in/hr0.0 mm/hr 0.00 in0.0 mm
09:00 AM 37.5°F3.1°C 22.8°F-5.1°C 55% 4.0 mph S6.4 kmh S 8.0 mph12.9 kmh 30.61 in1036.6 mb 0.00 in0.0 mm 0.00 in/hr0.0 mm/hr 0.00 in0.0 mm
08:45 AM 36.8°F2.7°C 22.1°F-5.5°C 55% 3.0 mph S4.8 kmh S 10.0 mph16.1 kmh 30.61 in1036.6 mb 0.00 in0.0 mm 0.00 in/hr0.0 mm/hr 0.00 in0.0 mm
08:30 AM 35.3°F1.8°C 23.2°F-4.9°C 61% 2.0 mph S3.2 kmh S 6.0 mph9.7 kmh 30.60 in1036.2 mb 0.00 in0.0 mm 0.00 in/hr0.0 mm/hr 0.00 in0.0 mm
08:15 AM 33.5°F0.8°C 24.1°F-4.4°C 68% 1.0 mph SE1.6 kmh SE 2.0 mph3.2 kmh 30.60 in1036.2 mb 0.00 in0.0 mm 0.00 in/hr0.0 mm/hr 0.00 in0.0 mm
08:00 AM 31.7°F-0.2°C 23.4°F-4.8°C 71% 1.0 mph SE1.6 kmh SE 3.0 mph4.8 kmh 30.60 in1036.2 mb 0.00 in0.0 mm 0.00 in/hr0.0 mm/hr 0.00 in0.0 mm
07:45 AM 29.1°F-1.6°C 22.5°F-5.3°C 76% 1.0 mph SE1.6 kmh SE 3.0 mph4.8 kmh 30.59 in1035.9 mb 0.00 in0.0 mm 0.00 in/hr0.0 mm/hr 0.00 in0.0 mm
07:30 AM 26.5°F-3.1°C 21.5°F-5.8°C 81% Calm Calm 2.0 mph3.2 kmh 30.59 in1035.9 mb 0.00 in0.0 mm 0.00 in/hr0.0 mm/hr 0.00 in0.0 mm
07:15 AM 25.4°F-3.7°C 20.7°F-6.3°C 82% Calm Calm 1.0 mph1.6 kmh 30.59 in1035.9 mb 0.00 in0.0 mm 0.00 in/hr0.0 mm/hr 0.00 in0.0 mm
07:00 AM 25.0°F-3.9°C 20.6°F-6.3°C 83% Calm Calm 1.0 mph1.6 kmh 30.59 in1035.9 mb 0.00 in0.0 mm 0.00 in/hr0.0 mm/hr 0.00 in0.0 mm
06:45 AM 24.9°F-3.9°C 20.5°F-6.4°C 83% Calm Calm -- 30.58 in1035.6 mb 0.00 in0.0 mm 0.00 in/hr0.0 mm/hr 0.00 in0.0 mm
06:30 AM 25.2°F-3.8°C 20.8°F-6.2°C 83% Calm Calm 1.0 mph1.6 kmh 30.58 in1035.6 mb 0.00 in0.0 mm 0.00 in/hr0.0 mm/hr 0.00 in0.0 mm
06:15 AM 25.4°F-3.7°C 21.0°F-6.1°C 83% 1.0 mph ESE1.6 kmh ESE 2.0 mph3.2 kmh 30.58 in1035.6 mb 0.00 in0.0 mm 0.00 in/hr0.0 mm/hr 0.00 in0.0 mm
06:00 AM 25.3°F-3.7°C 20.9°F-6.2°C 83% 1.0 mph SE1.6 kmh SE 4.0 mph6.4 kmh 30.58 in1035.6 mb 0.00 in0.0 mm 0.00 in/hr0.0 mm/hr 0.00 in0.0 mm
05:45 AM 25.1°F-3.8°C 20.9°F-6.2°C 84% Calm Calm 2.0 mph3.2 kmh 30.58 in1035.6 mb 0.00 in0.0 mm 0.00 in/hr0.0 mm/hr 0.00 in0.0 mm
05:30 AM 25.0°F-3.9°C 20.8°F-6.2°C 84% Calm Calm 2.0 mph3.2 kmh 30.59 in1035.9 mb 0.00 in0.0 mm 0.00 in/hr0.0 mm/hr 0.00 in0.0 mm
05:15 AM 25.0°F-3.9°C 21.1°F-6.1°C 85% Calm Calm 2.0 mph3.2 kmh 30.59 in1035.9 mb 0.00 in0.0 mm 0.00 in/hr0.0 mm/hr 0.00 in0.0 mm
05:00 AM 25.0°F-3.9°C 21.1°F-6.1°C 85% 1.0 mph SE1.6 kmh SE 4.0 mph6.4 kmh 30.58 in1035.6 mb 0.00 in0.0 mm 0.00 in/hr0.0 mm/hr 0.00 in0.0 mm
04:45 AM 24.9°F-3.9°C 21.0°F-6.1°C 85% Calm Calm 3.0 mph4.8 kmh 30.58 in1035.6 mb 0.00 in0.0 mm 0.00 in/hr0.0 mm/hr 0.00 in0.0 mm
04:30 AM 25.0°F-3.9°C 21.1°F-6.1°C 85% 1.0 mph SE1.6 kmh SE 2.0 mph3.2 kmh 30.58 in1035.6 mb 0.00 in0.0 mm 0.00 in/hr0.0 mm/hr 0.00 in0.0 mm
04:15 AM 25.1°F-3.8°C 21.2°F-6.0°C 85% Calm Calm 2.0 mph3.2 kmh 30.58 in1035.6 mb 0.00 in0.0 mm 0.00 in/hr0.0 mm/hr 0.00 in0.0 mm
04:00 AM 25.2°F-3.8°C 21.0°F-6.1°C 84% 1.0 mph SE1.6 kmh SE 2.0 mph3.2 kmh 30.59 in1035.9 mb 0.00 in0.0 mm 0.00 in/hr0.0 mm/hr 0.00 in0.0 mm
03:45 AM 25.4°F-3.7°C 21.2°F-6.0°C 84% Calm Calm 2.0 mph3.2 kmh 30.58 in1035.6 mb 0.00 in0.0 mm 0.00 in/hr0.0 mm/hr 0.00 in0.0 mm
03:30 AM 25.7°F-3.5°C 21.3°F-5.9°C 83% 1.0 mph SE1.6 kmh SE 3.0 mph4.8 kmh 30.59 in1035.9 mb 0.00 in0.0 mm 0.00 in/hr0.0 mm/hr 0.00 in0.0 mm
03:15 AM 26.0°F-3.3°C 21.5°F-5.8°C 83% 1.0 mph SE1.6 kmh SE 3.0 mph4.8 kmh 30.59 in1035.9 mb 0.00 in0.0 mm 0.00 in/hr0.0 mm/hr 0.00 in0.0 mm
03:00 AM 25.6°F-3.6°C 21.2°F-6.0°C 83% Calm Calm 2.0 mph3.2 kmh 30.60 in1036.2 mb 0.00 in0.0 mm 0.00 in/hr0.0 mm/hr 0.00 in0.0 mm
02:45 AM 25.8°F-3.4°C 21.1°F-6.1°C 82% Calm Calm 1.0 mph1.6 kmh 30.60 in1036.2 mb 0.00 in0.0 mm 0.00 in/hr0.0 mm/hr 0.00 in0.0 mm
02:30 AM 26.2°F-3.2°C 21.5°F-5.8°C 82% Calm Calm 2.0 mph3.2 kmh 30.60 in1036.2 mb 0.00 in0.0 mm 0.00 in/hr0.0 mm/hr 0.00 in0.0 mm
02:15 AM 26.2°F-3.2°C 21.5°F-5.8°C 82% Calm Calm 2.0 mph3.2 kmh 30.61 in1036.6 mb 0.00 in0.0 mm 0.00 in/hr0.0 mm/hr 0.00 in0.0 mm
02:00 AM 26.3°F-3.2°C 21.6°F-5.8°C 82% Calm Calm 1.0 mph1.6 kmh 30.60 in1036.2 mb 0.00 in0.0 mm 0.00 in/hr0.0 mm/hr 0.00 in0.0 mm
01:45 AM 26.8°F-2.9°C 21.8°F-5.7°C 81% 1.0 mph SE1.6 kmh SE 2.0 mph3.2 kmh 30.60 in1036.2 mb 0.00 in0.0 mm 0.00 in/hr0.0 mm/hr 0.00 in0.0 mm
01:30 AM 27.0°F-2.8°C 21.7°F-5.7°C 80% 1.0 mph SE1.6 kmh SE 2.0 mph3.2 kmh 30.60 in1036.2 mb 0.00 in0.0 mm 0.00 in/hr0.0 mm/hr 0.00 in0.0 mm
01:15 AM 26.9°F-2.8°C 21.6°F-5.8°C 80% 1.0 mph ESE1.6 kmh ESE 2.0 mph3.2 kmh 30.60 in1036.2 mb 0.00 in0.0 mm 0.00 in/hr0.0 mm/hr 0.00 in0.0 mm
01:00 AM 27.0°F-2.8°C 21.7°F-5.7°C 80% 1.0 mph ESE1.6 kmh ESE 2.0 mph3.2 kmh 30.60 in1036.2 mb 0.00 in0.0 mm 0.00 in/hr0.0 mm/hr 0.00 in0.0 mm
12:45 AM 26.9°F-2.8°C 21.6°F-5.8°C 80% Calm Calm 3.0 mph4.8 kmh 30.60 in1036.2 mb 0.00 in0.0 mm 0.00 in/hr0.0 mm/hr 0.00 in0.0 mm
12:30 AM 26.9°F-2.8°C 21.3°F-5.9°C 79% Calm Calm 1.0 mph1.6 kmh 30.60 in1036.2 mb 0.00 in0.0 mm 0.00 in/hr0.0 mm/hr 0.00 in0.0 mm
12:15 AM 26.7°F-2.9°C 21.4°F-5.9°C 80% Calm Calm 3.0 mph4.8 kmh 30.61 in1036.6 mb 0.00 in0.0 mm 0.00 in/hr0.0 mm/hr 0.00 in0.0 mm
12:00 AM 25.7°F-3.5°C 20.7°F-6.3°C 81% Calm Calm -- 30.61 in1036.6 mb 0.00 in0.0 mm 0.00 in/hr0.0 mm/hr 0.02 in0.5 mm